createdAt,value
2022-10-23T00:00:07.209Z,99.99
2022-10-23T00:00:37.843Z,99.99
2022-10-23T00:01:08.399Z,99.99
2022-10-23T00:01:38.997Z,99.99
2022-10-23T00:02:09.608Z,99.99
2022-10-23T00:02:40.682Z,99.99
2022-10-23T00:03:10.946Z,99.99
2022-10-23T00:03:41.491Z,99.69
2022-10-23T00:04:12.067Z,99.69
2022-10-23T00:04:42.656Z,99.69
2022-10-23T00:05:13.244Z,99.79
2022-10-23T00:05:43.821Z,99.99
2022-10-23T00:06:14.398Z,99.99
2022-10-23T00:06:44.976Z,99.90
2022-10-23T00:07:15.550Z,99.79
2022-10-23T00:07:46.107Z,99.69
2022-10-23T00:08:16.678Z,99.59
2022-10-23T00:08:47.256Z,99.79
2022-10-23T00:09:17.860Z,99.99
2022-10-23T00:09:48.427Z,99.99
2022-10-23T00:10:19.034Z,99.99
2022-10-23T00:10:52.153Z,99.99
2022-10-23T00:11:20.594Z,99.85
2022-10-23T00:11:51.168Z,98.93
2022-10-23T00:12:21.741Z,98.11
2022-10-23T00:12:52.330Z,97.70
2022-10-23T00:13:22.900Z,97.80
2022-10-23T00:13:53.486Z,98.00
2022-10-23T00:14:24.075Z,98.32
2022-10-23T00:14:54.681Z,98.62
2022-10-23T00:15:25.303Z,98.62
2022-10-23T00:15:55.883Z,98.62
2022-10-23T00:16:26.638Z,98.21
2022-10-23T00:16:57.239Z,98.00
2022-10-23T00:17:27.799Z,97.60
2022-10-23T00:17:58.390Z,97.49
2022-10-23T00:18:29.008Z,97.74
2022-10-23T00:18:59.535Z,98.05
2022-10-23T00:19:30.113Z,98.46
2022-10-23T00:20:00.690Z,98.62
2022-10-23T00:20:31.283Z,98.52
2022-10-23T00:21:01.860Z,98.52
2022-10-23T00:21:32.431Z,98.52
2022-10-23T00:22:02.996Z,98.00
2022-10-23T00:22:33.572Z,97.39
2022-10-23T00:23:04.169Z,97.08
2022-10-23T00:23:34.729Z,97.19
2022-10-23T00:24:05.357Z,97.08
2022-10-23T00:24:36.015Z,97.19
2022-10-23T00:25:06.600Z,97.39
2022-10-23T00:25:37.172Z,97.29
2022-10-23T00:26:07.719Z,97.29
2022-10-23T00:26:38.298Z,97.39
2022-10-23T00:27:08.873Z,97.49
2022-10-23T00:27:39.748Z,97.60
2022-10-23T00:28:10.456Z,97.49
2022-10-23T00:28:41.044Z,97.60
2022-10-23T00:29:11.620Z,97.44
2022-10-23T00:29:42.231Z,97.33
2022-10-23T00:30:12.814Z,97.23
2022-10-23T00:30:43.382Z,97.33
2022-10-23T00:31:13.965Z,97.44
2022-10-23T00:31:44.537Z,97.33
2022-10-23T00:32:15.115Z,97.33
2022-10-23T00:32:45.689Z,97.44
2022-10-23T00:33:16.259Z,97.74
2022-10-23T00:33:46.831Z,97.44
2022-10-23T00:34:17.394Z,97.54
2022-10-23T00:34:47.987Z,97.64
2022-10-23T00:35:18.567Z,97.64
2022-10-23T00:35:49.119Z,97.64
2022-10-23T00:36:19.698Z,97.74
2022-10-23T00:36:50.268Z,97.95
2022-10-23T00:37:20.918Z,98.05
2022-10-23T00:37:51.485Z,97.95
2022-10-23T00:38:22.082Z,98.05
2022-10-23T00:38:52.646Z,97.33
2022-10-23T00:39:23.227Z,97.03
2022-10-23T00:39:53.837Z,97.13
2022-10-23T00:40:24.424Z,96.92
2022-10-23T00:40:55.001Z,96.56
2022-10-23T00:41:25.598Z,96.87
2022-10-23T00:41:56.178Z,97.28
2022-10-23T00:42:26.781Z,97.58
2022-10-23T00:42:57.342Z,97.89
2022-10-23T00:43:27.920Z,97.99
2022-10-23T00:43:58.510Z,97.79
2022-10-23T00:44:29.093Z,97.89
2022-10-23T00:44:59.650Z,98.20
2022-10-23T00:45:30.239Z,98.20
2022-10-23T00:46:00.806Z,98.20
2022-10-23T00:46:31.348Z,98.30
2022-10-23T00:47:01.922Z,98.51
2022-10-23T00:47:32.503Z,98.41
2022-10-23T00:48:03.065Z,98.41
2022-10-23T00:48:33.647Z,98.10
2022-10-23T00:49:04.327Z,98.30
2022-10-23T00:49:35.583Z,98.20
2022-10-23T00:50:05.570Z,98.20
2022-10-23T00:50:36.167Z,98.30
2022-10-23T00:51:06.728Z,98.30
2022-10-23T00:51:37.298Z,97.79
2022-10-23T00:52:07.894Z,97.48
2022-10-23T00:52:38.473Z,97.48
2022-10-23T00:53:09.046Z,97.38
2022-10-23T00:53:39.624Z,97.42
2022-10-23T00:54:23.390Z,97.53
2022-10-23T00:54:40.973Z,97.94
2022-10-23T00:55:11.554Z,98.35
2022-10-23T00:55:42.145Z,98.25
2022-10-23T00:56:12.719Z,97.94
2022-10-23T00:56:43.367Z,97.94
2022-10-23T00:57:13.926Z,98.14
2022-10-23T00:57:44.507Z,98.14
2022-10-23T00:58:15.101Z,97.73
2022-10-23T00:58:45.671Z,97.42
2022-10-23T00:59:16.235Z,96.81
2022-10-23T00:59:46.835Z,96.60
2022-10-23T01:00:17.380Z,96.70
2022-10-23T01:00:47.955Z,97.02
2022-10-23T01:01:18.678Z,97.53
2022-10-23T01:01:49.426Z,97.63
2022-10-23T01:02:20.262Z,97.63
2022-10-23T01:02:50.866Z,97.53
2022-10-23T01:03:21.413Z,97.88
2022-10-23T01:03:52.003Z,98.14
2022-10-23T01:04:22.582Z,98.14
2022-10-23T01:04:53.145Z,97.99
2022-10-23T01:05:23.700Z,98.29
2022-10-23T01:05:54.283Z,98.50
2022-10-23T01:06:24.876Z,98.50
2022-10-23T01:06:55.440Z,98.60
2022-10-23T01:07:26.047Z,98.60
2022-10-23T01:07:56.656Z,98.91
2022-10-23T01:08:27.232Z,99.21
2022-10-23T01:08:57.826Z,99.83
2022-10-23T01:09:28.392Z,99.47
2022-10-23T01:09:58.963Z,99.16
2022-10-23T01:10:29.533Z,99.16
2022-10-23T01:11:00.099Z,99.26
2022-10-23T01:11:30.681Z,99.16
2022-10-23T01:12:01.272Z,99.57
2022-10-23T01:12:31.845Z,99.88
2022-10-23T01:13:02.412Z,99.98
2022-10-23T01:13:32.983Z,99.88
2022-10-23T01:14:34.139Z,99.98
2022-10-23T01:15:04.716Z,99.98
2022-10-23T01:15:35.298Z,99.99
2022-10-23T01:16:05.848Z,99.88
2022-10-23T01:16:36.422Z,99.88
2022-10-23T01:17:06.952Z,99.88
2022-10-23T01:17:39.676Z,99.77
2022-10-23T01:18:08.252Z,99.77
2022-10-23T01:18:38.832Z,99.98
2022-10-23T01:19:09.410Z,99.77
2022-10-23T01:19:40.022Z,99.67
2022-10-23T01:20:10.561Z,99.47
2022-10-23T01:20:41.178Z,99.47
2022-10-23T01:21:11.719Z,99.47
2022-10-23T01:21:42.270Z,99.77
2022-10-23T01:22:12.898Z,99.99
2022-10-23T01:22:43.957Z,99.99
2022-10-23T01:23:14.083Z,99.77
2022-10-23T01:23:44.660Z,99.93
2022-10-23T01:24:15.249Z,99.88
2022-10-23T01:24:45.782Z,99.67
2022-10-23T01:25:16.350Z,99.26
2022-10-23T01:25:46.947Z,99.00
2022-10-23T01:26:17.523Z,99.16
2022-10-23T01:26:48.106Z,99.10
2022-10-23T01:27:18.686Z,98.90
2022-10-23T01:27:49.242Z,99.10
2022-10-23T01:28:19.847Z,99.21
2022-10-23T01:28:50.438Z,99.31
2022-10-23T01:29:21.016Z,99.31
2022-10-23T01:29:51.596Z,99.51
2022-10-23T01:30:22.160Z,99.51
2022-10-23T01:30:52.727Z,99.21
2022-10-23T01:31:23.302Z,98.90
2022-10-23T01:31:53.879Z,98.90
2022-10-23T01:32:24.426Z,99.00
2022-10-23T01:32:55.015Z,99.31
2022-10-23T01:33:25.565Z,99.62
2022-10-23T01:33:56.158Z,99.62
2022-10-23T01:34:26.721Z,99.62
2022-10-23T01:34:57.315Z,99.51
2022-10-23T01:35:27.836Z,99.57
2022-10-23T01:35:58.416Z,99.67
2022-10-23T01:36:29.001Z,99.47
2022-10-23T01:36:59.568Z,99.05
2022-10-23T01:37:30.117Z,98.85
2022-10-23T01:38:00.687Z,98.85
2022-10-23T01:38:31.270Z,98.54
2022-10-23T01:39:01.818Z,97.92
2022-10-23T01:39:32.346Z,97.62
2022-10-23T01:40:02.895Z,97.62
2022-10-23T01:40:33.494Z,97.52
2022-10-23T01:41:04.083Z,97.72
2022-10-23T01:41:34.651Z,98.03
2022-10-23T01:42:05.223Z,98.13
2022-10-23T01:42:35.798Z,98.13
2022-10-23T01:43:06.383Z,98.24
2022-10-23T01:43:36.981Z,98.44
2022-10-23T01:44:07.576Z,98.54
2022-10-23T01:44:38.158Z,98.39
2022-10-23T01:45:08.740Z,98.29
2022-10-23T01:45:39.270Z,98.08
2022-10-23T01:46:09.822Z,97.88
2022-10-23T01:46:40.378Z,97.88
2022-10-23T01:47:11.053Z,97.99
2022-10-23T01:47:42.048Z,97.37
2022-10-23T01:48:12.261Z,96.65
2022-10-23T01:48:42.816Z,96.34
2022-10-23T01:49:13.389Z,96.55
2022-10-23T01:49:43.957Z,96.34
2022-10-23T01:50:14.570Z,96.28
2022-10-23T01:50:45.101Z,96.28
2022-10-23T01:51:15.684Z,96.65
2022-10-23T01:51:46.271Z,97.06
2022-10-23T01:52:16.861Z,96.85
2022-10-23T01:52:47.450Z,96.28
2022-10-23T01:53:17.996Z,96.08
2022-10-23T01:53:48.577Z,95.87
2022-10-23T01:54:19.166Z,96.18
2022-10-23T01:54:49.720Z,96.48
2022-10-23T01:55:20.280Z,96.39
2022-10-23T01:55:50.883Z,96.48
2022-10-23T01:56:21.436Z,96.53
2022-10-23T01:56:52.013Z,96.94
2022-10-23T01:57:22.543Z,97.36
2022-10-23T01:57:53.127Z,97.97
2022-10-23T01:58:23.683Z,98.49
2022-10-23T01:58:54.222Z,98.69
2022-10-23T01:59:24.811Z,98.59
2022-10-23T01:59:55.345Z,98.59
2022-10-23T02:00:25.901Z,98.79
2022-10-23T02:00:56.506Z,98.49
2022-10-23T02:01:27.293Z,98.18
2022-10-23T02:01:58.058Z,97.97
2022-10-23T02:02:28.675Z,98.07
2022-10-23T02:02:59.281Z,98.18
2022-10-23T02:03:29.827Z,98.18
2022-10-23T02:04:00.386Z,98.49
2022-10-23T02:04:30.925Z,98.49
2022-10-23T02:05:01.507Z,98.49
2022-10-23T02:05:32.086Z,98.28
2022-10-23T02:06:02.616Z,98.49
2022-10-23T02:06:33.182Z,98.79
2022-10-23T02:07:03.758Z,99.10
2022-10-23T02:07:34.341Z,98.79
2022-10-23T02:08:04.876Z,98.69
2022-10-23T02:08:35.459Z,98.90
2022-10-23T02:09:06.043Z,99.10
2022-10-23T02:09:36.627Z,98.79
2022-10-23T02:10:07.203Z,98.59
2022-10-23T02:10:37.908Z,98.28
2022-10-23T02:11:08.469Z,97.77
2022-10-23T02:11:39.039Z,97.66
2022-10-23T02:12:09.569Z,97.66
2022-10-23T02:12:40.120Z,97.77
2022-10-23T02:13:10.706Z,97.97
2022-10-23T02:13:41.266Z,97.97
2022-10-23T02:14:11.827Z,97.66
2022-10-23T02:14:42.424Z,97.97
2022-10-23T02:15:12.968Z,98.28
2022-10-23T02:15:43.548Z,98.38
2022-10-23T02:16:14.105Z,98.38
2022-10-23T02:16:44.678Z,98.49
2022-10-23T02:17:15.253Z,98.28
2022-10-23T02:17:45.818Z,98.07
2022-10-23T02:18:16.352Z,97.77
2022-10-23T02:18:46.933Z,97.25
2022-10-23T02:19:17.509Z,97.15
2022-10-23T02:19:48.095Z,96.94
2022-10-23T02:20:18.632Z,97.05
2022-10-23T02:20:49.213Z,96.84
2022-10-23T02:21:19.765Z,96.84
2022-10-23T02:21:50.326Z,96.84
2022-10-23T02:22:20.872Z,96.84
2022-10-23T02:22:51.460Z,97.25
2022-10-23T02:23:22.006Z,97.56
2022-10-23T02:23:55.289Z,97.66
2022-10-23T02:24:23.101Z,97.56
2022-10-23T02:24:53.649Z,97.66
2022-10-23T02:25:24.215Z,97.77
2022-10-23T02:25:54.787Z,97.56
2022-10-23T02:26:25.394Z,97.25
2022-10-23T02:26:55.971Z,96.73
2022-10-23T02:27:26.537Z,96.64
2022-10-23T02:27:57.098Z,96.84
2022-10-23T02:28:27.681Z,97.15
2022-10-23T02:28:58.307Z,97.36
2022-10-23T02:29:28.877Z,97.56
2022-10-23T02:29:59.437Z,97.77
2022-10-23T02:30:29.990Z,97.82
2022-10-23T02:31:00.566Z,97.82
2022-10-23T02:31:31.109Z,97.72
2022-10-23T02:32:01.686Z,97.62
2022-10-23T02:32:32.269Z,97.00
2022-10-23T02:33:02.847Z,96.12
2022-10-23T02:33:33.431Z,96.02
2022-10-23T02:34:03.986Z,96.33
2022-10-23T02:34:34.568Z,96.33
2022-10-23T02:35:05.119Z,96.22
2022-10-23T02:35:35.683Z,96.12
2022-10-23T02:36:06.277Z,96.53
2022-10-23T02:36:36.832Z,96.94
2022-10-23T02:37:07.420Z,97.25
2022-10-23T02:37:37.990Z,97.71
2022-10-23T02:38:08.543Z,97.91
2022-10-23T02:38:39.109Z,97.71
2022-10-23T02:39:09.655Z,97.71
2022-10-23T02:39:40.220Z,97.81
2022-10-23T02:40:10.825Z,98.22
2022-10-23T02:40:41.418Z,98.43
2022-10-23T02:41:11.953Z,98.53
2022-10-23T02:41:42.504Z,98.53
2022-10-23T02:42:13.100Z,98.33
2022-10-23T02:42:43.673Z,98.12
2022-10-23T02:43:14.264Z,97.91
2022-10-23T02:43:44.829Z,97.50
2022-10-23T02:44:15.393Z,97.40
2022-10-23T02:44:45.962Z,96.99
2022-10-23T02:45:16.541Z,96.89
2022-10-23T02:45:47.089Z,97.40
2022-10-23T02:46:17.678Z,97.91
2022-10-23T02:46:48.257Z,98.33
2022-10-23T02:47:18.852Z,98.22
2022-10-23T02:47:49.399Z,98.22
2022-10-23T02:48:19.953Z,98.33
2022-10-23T02:48:50.490Z,98.33
2022-10-23T02:49:21.021Z,98.22
2022-10-23T02:49:51.609Z,97.71
2022-10-23T02:50:22.190Z,97.71
2022-10-23T02:50:52.759Z,97.81
2022-10-23T02:51:23.337Z,97.61
2022-10-23T02:51:53.883Z,97.30
2022-10-23T02:52:24.479Z,97.40
2022-10-23T02:52:55.052Z,97.30
2022-10-23T02:53:25.618Z,97.30
2022-10-23T02:54:27.182Z,96.99
2022-10-23T02:54:57.745Z,96.89
2022-10-23T02:55:28.278Z,97.09
2022-10-23T02:55:58.851Z,96.94
2022-10-23T02:56:29.380Z,97.05
2022-10-23T02:56:59.934Z,97.05
2022-10-23T02:57:30.531Z,97.15
2022-10-23T02:58:01.072Z,96.84
2022-10-23T02:58:31.632Z,97.05
2022-10-23T02:59:02.211Z,97.36
2022-10-23T02:59:32.755Z,97.15
2022-10-23T03:00:03.297Z,97.05
2022-10-23T03:00:33.841Z,96.84
2022-10-23T03:01:04.415Z,96.64
2022-10-23T03:01:35.165Z,96.33
2022-10-23T03:02:05.880Z,96.47
2022-10-23T03:02:36.601Z,96.58
2022-10-23T03:03:07.141Z,96.78
2022-10-23T03:03:37.697Z,97.09
2022-10-23T03:04:08.249Z,97.40
2022-10-23T03:04:38.822Z,97.71
2022-10-23T03:05:09.411Z,98.02
2022-10-23T03:05:39.958Z,98.02
2022-10-23T03:06:10.526Z,97.81
2022-10-23T03:06:41.117Z,97.71
2022-10-23T03:07:11.656Z,97.66
2022-10-23T03:07:42.547Z,97.05
2022-10-23T03:08:12.815Z,96.64
2022-10-23T03:08:43.390Z,96.27
2022-10-23T03:09:13.945Z,96.27
2022-10-23T03:09:44.511Z,96.06
2022-10-23T03:10:15.077Z,96.47
2022-10-23T03:10:45.701Z,96.47
2022-10-23T03:11:16.300Z,96.68
2022-10-23T03:11:46.862Z,96.89
2022-10-23T03:12:17.389Z,96.99
2022-10-23T03:12:47.955Z,96.99
2022-10-23T03:13:18.510Z,97.09
2022-10-23T03:13:49.094Z,97.30
2022-10-23T03:14:19.653Z,97.30
2022-10-23T03:14:50.222Z,97.30
2022-10-23T03:15:20.808Z,97.19
2022-10-23T03:15:51.393Z,97.19
2022-10-23T03:16:21.960Z,97.40
2022-10-23T03:16:52.533Z,97.50
2022-10-23T03:17:23.117Z,97.40
2022-10-23T03:17:53.696Z,97.09
2022-10-23T03:18:24.238Z,97.30
2022-10-23T03:18:54.834Z,97.61
2022-10-23T03:19:25.417Z,97.40
2022-10-23T03:19:55.951Z,97.61
2022-10-23T03:20:26.499Z,97.81
2022-10-23T03:20:57.028Z,97.40
2022-10-23T03:21:27.602Z,97.50
2022-10-23T03:21:58.183Z,97.50
2022-10-23T03:22:28.716Z,97.61
2022-10-23T03:22:59.272Z,97.81
2022-10-23T03:23:29.810Z,97.61
2022-10-23T03:24:00.373Z,97.19
2022-10-23T03:24:30.976Z,97.09
2022-10-23T03:25:01.565Z,97.30
2022-10-23T03:25:32.118Z,97.19
2022-10-23T03:26:02.713Z,97.09
2022-10-23T03:26:33.262Z,97.09
2022-10-23T03:27:03.814Z,97.19
2022-10-23T03:27:34.363Z,97.09
2022-10-23T03:28:04.943Z,97.09
2022-10-23T03:28:35.525Z,97.09
2022-10-23T03:29:06.084Z,97.30
2022-10-23T03:29:36.649Z,97.30
2022-10-23T03:30:07.208Z,96.99
2022-10-23T03:30:37.795Z,96.89
2022-10-23T03:31:08.399Z,96.78
2022-10-23T03:31:38.961Z,96.68
2022-10-23T03:32:09.557Z,96.68
2022-10-23T03:32:40.311Z,96.47
2022-10-23T03:33:10.920Z,96.47
2022-10-23T03:33:41.519Z,96.27
2022-10-23T03:34:12.088Z,96.17
2022-10-23T03:34:42.645Z,96.27
2022-10-23T03:35:13.199Z,96.27
2022-10-23T03:35:43.811Z,96.06
2022-10-23T03:36:14.371Z,96.27
2022-10-23T03:36:44.944Z,96.47
2022-10-23T03:37:15.559Z,96.89
2022-10-23T03:37:46.431Z,96.99
2022-10-23T03:38:16.995Z,97.15
2022-10-23T03:38:47.545Z,97.05
2022-10-23T03:39:18.113Z,96.58
2022-10-23T03:39:48.666Z,96.06
2022-10-23T03:40:19.238Z,95.96
2022-10-23T03:40:49.797Z,96.06
2022-10-23T03:41:20.330Z,96.37
2022-10-23T03:41:50.905Z,96.37
2022-10-23T03:42:21.477Z,96.37
2022-10-23T03:42:52.033Z,96.27
2022-10-23T03:43:22.615Z,96.12
2022-10-23T03:43:53.274Z,96.12
2022-10-23T03:44:23.821Z,96.12
2022-10-23T03:44:54.360Z,95.92
2022-10-23T03:45:24.906Z,95.50
2022-10-23T03:45:55.518Z,95.09
2022-10-23T03:46:26.095Z,95.09
2022-10-23T03:46:56.668Z,95.30
2022-10-23T03:47:27.213Z,95.61
2022-10-23T03:47:57.787Z,95.40
2022-10-23T03:48:28.347Z,95.24
2022-10-23T03:48:58.913Z,95.14
2022-10-23T03:49:29.460Z,95.55
2022-10-23T03:50:00.082Z,95.96
2022-10-23T03:50:30.626Z,96.17
2022-10-23T03:51:01.173Z,96.47
2022-10-23T03:51:31.723Z,96.78
2022-10-23T03:52:02.280Z,96.78
2022-10-23T03:52:32.848Z,96.99
2022-10-23T03:53:03.405Z,96.99
2022-10-23T03:53:33.960Z,96.89
2022-10-23T03:54:04.506Z,96.89
2022-10-23T03:54:35.067Z,97.19
2022-10-23T03:55:05.633Z,97.40
2022-10-23T03:55:36.204Z,97.50
2022-10-23T03:56:06.778Z,97.61
2022-10-23T03:56:37.362Z,97.65
2022-10-23T03:57:07.918Z,97.75
2022-10-23T03:57:38.476Z,98.02
2022-10-23T03:58:09.022Z,98.16
2022-10-23T03:58:39.586Z,98.37
2022-10-23T03:59:10.167Z,98.68
2022-10-23T03:59:40.753Z,98.99
2022-10-23T04:00:11.314Z,99.19
2022-10-23T04:01:12.483Z,99.19
2022-10-23T04:01:43.155Z,99.30
2022-10-23T04:02:13.831Z,99.40
2022-10-23T04:02:44.724Z,99.51
2022-10-23T04:03:14.933Z,99.51
2022-10-23T04:03:45.513Z,99.19
2022-10-23T04:04:16.081Z,98.79
2022-10-23T04:04:46.639Z,98.88
2022-10-23T04:05:17.175Z,99.09
2022-10-23T04:05:49.977Z,99.30
2022-10-23T04:06:18.606Z,99.60
2022-10-23T04:06:49.271Z,99.81
2022-10-23T04:07:19.954Z,99.81
2022-10-23T04:07:50.511Z,99.51
2022-10-23T04:08:21.054Z,99.19
2022-10-23T04:08:51.636Z,99.09
2022-10-23T04:09:22.197Z,99.19
2022-10-23T04:09:52.730Z,99.30
2022-10-23T04:10:23.257Z,99.71
2022-10-23T04:10:53.818Z,99.91
2022-10-23T04:11:24.421Z,99.91
2022-10-23T04:11:55.001Z,99.81
2022-10-23T04:12:25.574Z,99.81
2022-10-23T04:12:56.140Z,99.91
2022-10-23T04:13:26.682Z,99.81
2022-10-23T04:13:57.256Z,99.81
2022-10-23T04:14:27.789Z,99.60
2022-10-23T04:14:58.356Z,99.60
2022-10-23T04:15:28.935Z,99.86
2022-10-23T04:15:59.493Z,99.99
2022-10-23T04:16:30.077Z,99.99
2022-10-23T04:17:00.638Z,99.99
2022-10-23T04:17:31.229Z,99.96
2022-10-23T04:18:01.804Z,99.86
2022-10-23T04:18:32.335Z,99.99
2022-10-23T04:19:02.942Z,99.99
2022-10-23T04:19:33.485Z,99.99
2022-10-23T04:20:04.031Z,99.99
2022-10-23T04:20:34.586Z,99.99
2022-10-23T04:21:05.156Z,99.99
2022-10-23T04:21:35.731Z,99.99
2022-10-23T04:22:06.304Z,99.99
2022-10-23T04:22:36.849Z,99.99
2022-10-23T04:23:07.398Z,99.65
2022-10-23T04:23:37.948Z,99.44
2022-10-23T04:24:08.519Z,99.19
2022-10-23T04:24:39.096Z,99.09
2022-10-23T04:25:09.719Z,99.09
2022-10-23T04:25:40.339Z,98.88
2022-10-23T04:26:10.895Z,98.79
2022-10-23T04:26:41.459Z,98.88
2022-10-23T04:27:12.044Z,99.09
2022-10-23T04:27:42.974Z,99.30
2022-10-23T04:28:13.143Z,99.51
2022-10-23T04:28:43.720Z,99.40
2022-10-23T04:29:14.281Z,98.88
2022-10-23T04:29:44.861Z,98.68
2022-10-23T04:30:15.386Z,98.58
2022-10-23T04:30:45.990Z,98.58
2022-10-23T04:31:16.578Z,98.58
2022-10-23T04:31:47.149Z,98.68
2022-10-23T04:32:17.730Z,98.47
2022-10-23T04:32:48.297Z,98.37
2022-10-23T04:33:18.858Z,97.86
2022-10-23T04:33:49.463Z,97.75
2022-10-23T04:34:20.031Z,97.96
2022-10-23T04:34:50.595Z,98.27
2022-10-23T04:35:21.160Z,98.47
2022-10-23T04:35:51.745Z,98.68
2022-10-23T04:36:22.330Z,98.79
2022-10-23T04:36:52.909Z,98.79
2022-10-23T04:37:23.468Z,98.88
2022-10-23T04:37:54.012Z,98.99
2022-10-23T04:38:24.623Z,99.09
2022-10-23T04:38:55.164Z,98.99
2022-10-23T04:39:25.745Z,98.99
2022-10-23T04:39:56.304Z,98.88
2022-10-23T04:40:26.848Z,98.68
2022-10-23T04:40:57.464Z,98.47
2022-10-23T04:41:28.012Z,98.47
2022-10-23T04:41:58.570Z,98.79
2022-10-23T04:42:29.114Z,98.79
2022-10-23T04:42:59.651Z,98.79
2022-10-23T04:43:30.216Z,98.58
2022-10-23T04:44:00.815Z,98.79
2022-10-23T04:44:31.396Z,99.19
2022-10-23T04:45:01.962Z,99.51
2022-10-23T04:45:32.528Z,99.81
2022-10-23T04:46:03.104Z,99.91
2022-10-23T04:46:33.678Z,99.91
2022-10-23T04:47:04.231Z,99.81
2022-10-23T04:47:34.834Z,99.91
2022-10-23T04:48:05.397Z,99.81
2022-10-23T04:48:35.977Z,99.81
2022-10-23T04:49:06.556Z,99.91
2022-10-23T04:49:37.089Z,99.81
2022-10-23T04:50:07.661Z,99.81
2022-10-23T04:50:38.282Z,99.91
2022-10-23T04:51:08.862Z,99.99
2022-10-23T04:51:39.422Z,99.99
2022-10-23T04:52:09.989Z,99.99
2022-10-23T04:52:40.911Z,99.99
2022-10-23T04:53:11.237Z,99.99
2022-10-23T04:53:41.810Z,99.99
2022-10-23T04:54:12.343Z,99.99
2022-10-23T04:54:42.905Z,99.99
2022-10-23T04:55:13.451Z,99.99
2022-10-23T04:55:44.044Z,99.99
2022-10-23T04:56:14.617Z,99.99
2022-10-23T04:56:45.202Z,99.99
2022-10-23T04:57:15.756Z,99.99
2022-10-23T04:57:46.335Z,99.99
2022-10-23T04:58:16.870Z,99.99
2022-10-23T04:58:47.452Z,99.99
2022-10-23T04:59:18.025Z,99.99
2022-10-23T04:59:48.587Z,99.99
2022-10-23T05:00:19.145Z,99.99
2022-10-23T05:00:49.849Z,99.99
2022-10-23T05:01:20.575Z,99.99
2022-10-23T05:01:51.251Z,99.51
2022-10-23T05:02:21.788Z,99.09
2022-10-23T05:02:52.357Z,98.68
2022-10-23T05:03:22.922Z,98.27
2022-10-23T05:03:53.461Z,98.37
2022-10-23T05:04:24.013Z,98.68
2022-10-23T05:04:54.604Z,98.99
2022-10-23T05:05:25.143Z,99.30
2022-10-23T05:05:55.725Z,99.51
2022-10-23T05:06:26.299Z,99.56
2022-10-23T05:06:56.856Z,99.56
2022-10-23T05:07:27.433Z,99.05
2022-10-23T05:07:58.021Z,98.53
2022-10-23T05:08:28.617Z,98.33
2022-10-23T05:08:59.199Z,98.33
2022-10-23T05:09:29.762Z,98.22
2022-10-23T05:10:00.336Z,98.12
2022-10-23T05:10:30.891Z,98.27
2022-10-23T05:11:01.471Z,98.37
2022-10-23T05:11:32.044Z,97.96
2022-10-23T05:12:02.570Z,97.55
2022-10-23T05:12:33.166Z,97.55
2022-10-23T05:13:03.727Z,97.86
2022-10-23T05:13:34.306Z,98.06
2022-10-23T05:14:04.869Z,98.27
2022-10-23T05:14:35.423Z,98.58
2022-10-23T05:15:06.020Z,98.88
2022-10-23T05:15:36.640Z,99.09
2022-10-23T05:16:07.267Z,99.30
2022-10-23T05:16:37.861Z,99.40
2022-10-23T05:17:08.446Z,99.30
2022-10-23T05:17:39.154Z,99.30
2022-10-23T05:18:09.745Z,99.30
2022-10-23T05:18:40.285Z,99.09
2022-10-23T05:19:10.838Z,98.58
2022-10-23T05:19:41.370Z,98.47
2022-10-23T05:20:11.950Z,98.47
2022-10-23T05:20:42.486Z,98.58
2022-10-23T05:21:13.017Z,98.74
2022-10-23T05:21:43.594Z,98.94
2022-10-23T05:22:14.258Z,98.84
2022-10-23T05:22:44.795Z,98.74
2022-10-23T05:23:15.344Z,98.63
2022-10-23T05:23:45.862Z,98.43
2022-10-23T05:24:16.909Z,97.91
2022-10-23T05:24:50.462Z,97.81
2022-10-23T05:25:18.775Z,97.61
2022-10-23T05:25:49.361Z,97.34
2022-10-23T05:26:19.917Z,97.40
2022-10-23T05:26:50.501Z,97.44
2022-10-23T05:27:21.067Z,97.34
2022-10-23T05:27:51.593Z,97.24
2022-10-23T05:28:22.116Z,97.44
2022-10-23T05:28:52.647Z,97.86
2022-10-23T05:29:23.182Z,98.16
2022-10-23T05:29:53.729Z,98.27
2022-10-23T05:30:24.291Z,98.27
2022-10-23T05:30:54.812Z,98.27
2022-10-23T05:31:25.320Z,98.27
2022-10-23T05:31:55.844Z,98.16
2022-10-23T05:32:26.412Z,97.96
2022-10-23T05:32:56.970Z,97.65
2022-10-23T05:33:27.968Z,97.44
2022-10-23T05:33:58.526Z,97.44
2022-10-23T05:34:29.528Z,97.65
2022-10-23T05:35:00.552Z,97.96
2022-10-23T05:35:31.076Z,98.27
2022-10-23T05:36:02.106Z,98.62
2022-10-23T05:36:33.153Z,98.68
2022-10-23T05:37:03.684Z,98.52
2022-10-23T05:37:34.226Z,98.52
2022-10-23T05:38:05.222Z,98.32
2022-10-23T05:38:35.738Z,98.21
2022-10-23T05:39:06.816Z,98.42
2022-10-23T05:39:37.342Z,98.52
2022-10-23T05:40:07.830Z,98.62
2022-10-23T05:41:09.321Z,98.93
2022-10-23T05:41:39.862Z,98.93
2022-10-23T05:42:10.864Z,98.62
2022-10-23T05:42:41.958Z,98.62
2022-10-23T05:43:12.461Z,98.42
2022-10-23T05:43:43.484Z,98.32
2022-10-23T05:44:14.002Z,98.00
2022-10-23T05:44:45.048Z,98.00
2022-10-23T05:45:15.564Z,98.11
2022-10-23T05:45:46.621Z,98.21
2022-10-23T05:46:17.627Z,98.52
2022-10-23T05:46:48.146Z,98.72
2022-10-23T05:47:18.684Z,98.83
2022-10-23T05:47:49.684Z,98.83
2022-10-23T05:48:34.419Z,98.97
2022-10-23T05:48:51.048Z,99.08
2022-10-23T05:49:21.553Z,99.29
2022-10-23T05:49:52.080Z,99.44
2022-10-23T05:50:23.121Z,99.65
2022-10-23T05:50:53.646Z,99.76
2022-10-23T05:51:24.174Z,99.86
2022-10-23T05:51:54.748Z,99.96
2022-10-23T05:52:25.259Z,99.99
2022-10-23T05:52:55.816Z,99.99
2022-10-23T05:53:26.864Z,99.99
2022-10-23T05:53:57.369Z,99.86
2022-10-23T05:54:27.880Z,99.71
2022-10-23T05:54:58.941Z,99.60
2022-10-23T05:55:29.429Z,99.51
2022-10-23T05:56:00.462Z,98.99
2022-10-23T05:56:30.999Z,98.16
2022-10-23T05:57:01.513Z,98.16
2022-10-23T05:57:32.572Z,98.16
2022-10-23T05:58:03.619Z,98.16
2022-10-23T05:58:34.135Z,98.37
2022-10-23T05:59:04.617Z,98.37
2022-10-23T05:59:35.656Z,98.47
2022-10-23T06:00:06.717Z,98.47
2022-10-23T06:00:37.228Z,98.47
2022-10-23T06:01:08.313Z,98.58
2022-10-23T06:01:38.982Z,98.58
2022-10-23T06:02:09.699Z,98.58
2022-10-23T06:02:40.320Z,98.06
2022-10-23T06:03:10.847Z,97.55
2022-10-23T06:03:41.871Z,97.65
2022-10-23T06:04:12.397Z,97.86
2022-10-23T06:04:42.910Z,97.96
2022-10-23T06:05:13.937Z,98.16
2022-10-23T06:05:44.463Z,98.16
2022-10-23T06:06:15.512Z,97.69
2022-10-23T06:06:46.013Z,97.90
2022-10-23T06:07:17.047Z,98.21
2022-10-23T06:07:48.059Z,98.42
2022-10-23T06:08:18.574Z,98.37
2022-10-23T06:08:49.618Z,98.37
2022-10-23T06:09:20.648Z,98.27
2022-10-23T06:09:51.173Z,98.16
2022-10-23T06:10:21.718Z,97.65
2022-10-23T06:10:52.735Z,97.65
2022-10-23T06:11:23.248Z,97.75
2022-10-23T06:11:54.249Z,97.86
2022-10-23T06:12:25.258Z,97.86
2022-10-23T06:12:55.800Z,97.65
2022-10-23T06:13:26.822Z,97.65
2022-10-23T06:14:27.881Z,97.65
2022-10-23T06:14:58.892Z,97.86
2022-10-23T06:15:29.951Z,97.96
2022-10-23T06:16:00.473Z,97.86
2022-10-23T06:16:31.512Z,97.75
2022-10-23T06:17:02.067Z,97.86
2022-10-23T06:17:32.595Z,97.86
2022-10-23T06:18:03.642Z,97.81
2022-10-23T06:18:34.168Z,97.81
2022-10-23T06:19:05.171Z,97.61
2022-10-23T06:19:35.689Z,97.30
2022-10-23T06:20:06.209Z,97.19
2022-10-23T06:20:37.228Z,97.19
2022-10-23T06:21:07.751Z,97.40
2022-10-23T06:21:38.790Z,97.50
2022-10-23T06:22:09.872Z,97.61
2022-10-23T06:22:40.606Z,97.40
2022-10-23T06:23:11.310Z,96.68
2022-10-23T06:23:42.320Z,96.47
2022-10-23T06:24:13.374Z,96.78
2022-10-23T06:24:43.897Z,97.09
2022-10-23T06:25:14.407Z,97.19
2022-10-23T06:25:45.445Z,97.40
2022-10-23T06:26:15.952Z,97.19
2022-10-23T06:26:46.964Z,96.99
2022-10-23T06:27:17.969Z,97.30
2022-10-23T06:27:48.994Z,97.50
2022-10-23T06:28:20.784Z,97.50
2022-10-23T06:28:50.857Z,97.50
2022-10-23T06:29:21.385Z,97.50
2022-10-23T06:29:51.907Z,97.50
2022-10-23T06:30:22.459Z,97.61
2022-10-23T06:30:53.478Z,97.44
2022-10-23T06:31:24.000Z,97.75
2022-10-23T06:31:55.035Z,97.96
2022-10-23T06:32:26.076Z,98.06
2022-10-23T06:32:56.592Z,98.16
2022-10-23T06:33:27.603Z,98.16
2022-10-23T06:33:58.651Z,98.37
2022-10-23T06:34:29.175Z,98.37
2022-10-23T06:34:59.693Z,98.47
2022-10-23T06:35:30.702Z,98.47
2022-10-23T06:36:01.222Z,98.58
2022-10-23T06:36:31.753Z,98.58